Time;durP1;ratioP1;P1;durP2;ratioP2;P2;SDS_P1;SDS_P2;PMS_P1;PMS_P2;Temp;Humidity;BMP_temperature;BMP_pressure;BME280_temperature;BME280_humidity;BME280_pressure;Samples;Min_cycle;Max_cycle;Signal;HPM_P1;HPM_P2
2022/10/16 00:01:27;;;;;;;4.25;1.48;;;14.90;1.00;;;;;;6227615;23;20073;-92
2022/10/16 00:04:14;;;;;;;4.78;1.50;;;14.80;1.00;;;;;;6250697;22;20020;-93
2022/10/16 00:07:01;;;;;;;6.53;1.75;;;14.80;1.00;;;;;;6227247;23;20035;-92
2022/10/16 00:09:48;;;;;;;3.97;1.40;;;14.80;1.00;;;;;;6249620;23;20047;-91
2022/10/16 00:12:35;;;;;;;2.92;1.20;;;14.80;1.00;;;;;;6226964;23;20052;-91
2022/10/16 00:15:23;;;;;;;2.38;1.23;;;14.80;1.00;;;;;;6249746;23;20052;-92
2022/10/16 00:18:10;;;;;;;3.58;1.45;;;14.70;1.00;;;;;;6228127;23;20028;-91
2022/10/16 00:21:09;;;;;;;3.63;1.13;;;14.70;1.00;;;;;;6247441;23;20094;-94
2022/10/16 00:24:04;;;;;;;2.30;1.55;;;14.70;1.00;;;;;;6232368;23;20032;-91
2022/10/16 00:26:51;;;;;;;3.22;1.25;;;14.70;1.00;;;;;;6253093;23;20024;-92
2022/10/16 00:29:41;;;;;;;2.80;1.67;;;14.70;1.00;;;;;;6252354;23;20482;-92
2022/10/16 00:32:30;;;;;;;4.45;1.35;;;14.70;1.00;;;;;;6254373;23;20407;-93
2022/10/16 00:35:17;;;;;;;2.78;1.25;;;14.60;1.00;;;;;;6235664;23;20084;-90
2022/10/16 00:38:04;;;;;;;5.82;1.95;;;14.50;1.00;;;;;;6258347;23;20038;-92
2022/10/16 00:40:52;;;;;;;1.90;1.40;;;14.50;1.00;;;;;;6262331;23;20024;-92
2022/10/16 00:43:47;;;;;;;4.65;1.50;;;14.50;8.90;;;;;;6256816;23;20091;-92
2022/10/16 00:46:38;;;;;;;4.15;1.40;;;14.50;25.20;;;;;;6233869;23;20026;-93
2022/10/16 00:49:29;;;;;;;1.90;1.30;;;14.40;41.10;;;;;;6234366;23;20020;-93
2022/10/16 00:52:16;;;;;;;4.93;1.45;;;14.50;54.30;;;;;;6255387;23;20415;-91
2022/10/16 00:55:08;;;;;;;6.13;1.73;;;14.50;64.00;;;;;;6231342;23;20047;-91
2022/10/16 00:57:58;;;;;;;3.78;1.20;;;14.50;66.00;;;;;;6252069;23;20453;-92
2022/10/16 01:00:45;;;;;;;4.38;1.38;;;14.50;56.80;;;;;;6235332;23;20028;-89
2022/10/16 01:03:36;;;;;;;3.80;1.73;;;14.50;53.20;;;;;;6255848;23;20020;-90
2022/10/16 01:06:24;;;;;;;5.10;1.73;;;14.50;62.40;;;;;;6257418;23;20035;-93
2022/10/16 01:09:14;;;;;;;2.22;1.38;;;14.50;55.10;;;;;;6241361;23;20020;-89
2022/10/16 01:12:11;;;;;;;2.20;1.05;;;14.50;41.70;;;;;;6237719;23;20107;-91
2022/10/16 01:15:10;;;;;;;1.40;1.30;;;14.60;23.50;;;;;;6256073;23;20108;-89
2022/10/16 01:18:09;;;;;;;1.55;1.10;;;14.60;14.50;;;;;;6254166;23;20078;-91
2022/10/16 01:21:03;;;;;;;5.32;1.38;;;14.60;6.10;;;;;;6252387;23;20032;-92
2022/10/16 01:23:56;;;;;;;2.80;1.30;;;14.60;1.00;;;;;;6251673;23;20091;-91
2022/10/16 01:27:12;;;;;;;4.68;1.73;;;14.60;1.00;;;;;;6253227;23;20035;-91
2022/10/16 01:30:22;;;;;;;2.67;1.35;;;14.60;1.00;;;;;;6266748;23;20020;-90
2022/10/16 01:33:21;;;;;;;2.83;1.50;;;14.60;1.00;;;;;;6264079;23;20024;-91
2022/10/16 01:36:23;;;;;;;4.70;1.50;;;14.60;1.00;;;;;;6245983;23;20024;-92
2022/10/16 01:39:11;;;;;;;2.03;1.42;;;14.70;1.00;;;;;;6261413;23;20048;-90
2022/10/16 01:42:14;;;;;;;4.25;1.80;;;14.70;1.00;;;;;;6227885;23;20116;-91
2022/10/16 01:45:07;;;;;;;1.90;1.20;;;14.80;1.00;;;;;;6249578;23;20127;-90
2022/10/16 01:47:55;;;;;;;1.27;1.17;;;14.80;1.00;;;;;;6250203;23;20078;-92
2022/10/16 01:50:44;;;;;;;1.60;1.40;;;14.80;1.00;;;;;;6228786;23;20103;-92
2022/10/16 01:53:32;;;;;;;6.80;1.70;;;14.70;1.00;;;;;;6250280;23;20076;-91
2022/10/16 01:56:24;;;;;;;3.53;1.52;;;14.60;1.00;;;;;;6250048;23;20059;-93
2022/10/16 01:59:15;;;;;;;4.43;1.55;;;14.60;1.00;;;;;;6250829;23;20031;-91
2022/10/16 02:02:09;;;;;;;4.07;1.60;;;14.50;1.00;;;;;;6228127;23;20020;-94
2022/10/16 02:05:15;;;;;;;1.40;1.27;;;14.50;1.00;;;;;;6240207;23;20104;-93
2022/10/16 02:08:03;;;;;;;1.98;1.42;;;14.40;11.80;;;;;;6264179;23;20024;-93
2022/10/16 02:10:52;;;;;;;3.22;1.30;;;14.30;84.90;;;;;;6252043;23;20021;-91
2022/10/16 02:13:41;;;;;;;2.03;1.33;;;14.20;99.90;;;;;;6229688;23;20054;-92
2022/10/16 02:16:40;;;;;;;4.40;1.50;;;14.10;99.90;;;;;;6250982;23;20458;-93
2022/10/16 02:19:27;;;;;;;2.10;1.70;;;14.10;99.90;;;;;;6249734;23;20499;-92
2022/10/16 02:22:37;;;;;;;2.10;1.83;;;14.10;99.90;;;;;;6227646;23;20024;-92
2022/10/16 02:25:37;;;;;;;3.22;1.70;;;14.10;99.90;;;;;;6228836;23;20103;-92
2022/10/16 02:28:38;;;;;;;3.88;1.52;;;14.00;99.90;;;;;;6227665;23;20059;-90
2022/10/16 02:31:30;;;;;;;3.03;1.60;;;14.10;99.90;;;;;;6230136;23;20031;-91
2022/10/16 02:34:21;;;;;;;1.63;1.25;;;14.10;99.90;;;;;;6249693;23;20047;-89
2022/10/16 02:37:10;;;;;;;4.18;1.52;;;14.10;99.90;;;;;;6229126;23;20320;-90
2022/10/16 02:39:58;;;;;;;2.65;1.70;;;14.10;99.90;;;;;;6228622;23;20093;-91
2022/10/16 02:42:50;;;;;;;5.57;1.73;;;14.10;99.90;;;;;;6226150;23;20326;-92
2022/10/16 02:45:40;;;;;;;4.28;1.48;;;14.10;99.90;;;;;;6249129;23;20031;-91
2022/10/16 02:48:29;;;;;;;2.30;1.67;;;14.00;99.90;;;;;;6229112;23;20028;-90
2022/10/16 02:51:16;;;;;;;5.47;1.77;;;14.00;99.90;;;;;;6228970;23;20109;-94
2022/10/16 02:54:04;;;;;;;2.95;1.48;;;14.00;99.90;;;;;;6230419;23;20024;-90
2022/10/16 02:56:51;;;;;;;5.75;1.45;;;14.10;99.90;;;;;;6229048;23;20125;-93
2022/10/16 02:59:38;;;;;;;4.68;1.40;;;14.00;99.90;;;;;;6229937;23;20075;-91
2022/10/16 03:02:26;;;;;;;5.78;1.58;;;14.10;99.90;;;;;;6259664;23;20020;-90
2022/10/16 03:05:16;;;;;;;5.55;1.65;;;14.20;99.90;;;;;;6239616;23;20114;-90
2022/10/16 03:08:03;;;;;;;1.98;1.38;;;14.20;99.90;;;;;;6240796;23;20035;-90
2022/10/16 03:10:51;;;;;;;3.88;1.30;;;14.20;99.90;;;;;;6248189;23;20055;-90
2022/10/16 03:13:39;;;;;;;8.48;1.50;;;14.30;99.90;;;;;;6240019;23;20063;-89
2022/10/16 03:16:26;;;;;;;3.67;1.60;;;14.40;99.90;;;;;;6254243;23;20099;-91
2022/10/16 03:19:13;;;;;;;7.57;1.63;;;14.40;99.90;;;;;;6232928;23;20084;-89
2022/10/16 03:22:02;;;;;;;10.60;5.22;;;14.40;99.90;;;;;;6232401;23;20048;-91
2022/10/16 03:24:49;;;;;;;17.10;8.38;;;14.30;99.90;;;;;;6230579;23;20024;-89
2022/10/16 03:27:36;;;;;;;4.22;1.80;;;14.30;99.90;;;;;;6248757;23;20035;-90
2022/10/16 03:30:23;;;;;;;1.77;1.55;;;14.30;99.90;;;;;;6228106;23;20024;-92
2022/10/16 03:33:11;;;;;;;3.50;1.58;;;14.30;99.90;;;;;;6249713;23;20035;-90
2022/10/16 03:35:58;;;;;;;2.03;1.42;;;14.30;99.90;;;;;;6249223;23;20032;-91
2022/10/16 03:38:46;;;;;;;2.55;1.65;;;14.30;99.90;;;;;;6250674;23;20056;-91
2022/10/16 03:41:33;;;;;;;1.85;1.65;;;14.30;99.90;;;;;;6256821;23;20024;-91
2022/10/16 03:44:21;;;;;;;1.92;1.40;;;14.30;99.90;;;;;;6234498;23;20028;-89
2022/10/16 03:47:08;;;;;;;8.82;1.92;;;14.20;99.90;;;;;;6255338;23;20095;-90
2022/10/16 03:49:55;;;;;;;2.75;1.63;;;14.30;99.90;;;;;;6233454;23;20512;-90
2022/10/16 03:52:43;;;;;;;2.28;1.65;;;14.30;99.90;;;;;;6230809;23;20031;-92
2022/10/16 03:55:30;;;;;;;2.72;1.50;;;14.30;99.90;;;;;;6229136;23;20095;-91
2022/10/16 03:58:17;;;;;;;4.53;1.52;;;14.30;99.90;;;;;;6249683;22;20028;-90
2022/10/16 04:01:05;;;;;;;2.17;1.55;;;14.40;99.90;;;;;;6247586;23;20310;-93
2022/10/16 04:03:52;;;;;;;4.03;1.45;;;14.40;99.90;;;;;;6246526;23;20095;-90
2022/10/16 04:06:39;;;;;;;7.60;1.65;;;14.40;68.90;;;;;;6247715;23;20020;-92
2022/10/16 04:09:27;;;;;;;3.60;1.77;;;14.30;48.00;;;;;;6246919;23;20024;-90
2022/10/16 04:12:15;;;;;;;3.03;1.55;;;14.30;69.50;;;;;;6227864;23;20107;-90
2022/10/16 04:15:04;;;;;;;4.28;1.63;;;14.20;97.00;;;;;;6226929;23;20030;-92
2022/10/16 04:17:52;;;;;;;4.75;1.48;;;14.20;99.90;;;;;;6225978;23;20031;-89
2022/10/16 04:20:39;;;;;;;6.93;1.30;;;14.20;99.90;;;;;;6248121;23;20020;-89
2022/10/16 04:23:26;;;;;;;1.85;1.50;;;14.30;99.90;;;;;;6246129;23;20034;-89
2022/10/16 04:26:13;;;;;;;1.80;1.42;;;14.30;98.10;;;;;;6225627;23;20024;-91
2022/10/16 04:29:00;;;;;;;4.85;1.60;;;14.30;72.20;;;;;;6226948;23;20043;-91
2022/10/16 04:31:48;;;;;;;8.07;1.58;;;14.20;67.40;;;;;;6227592;23;20024;-92
2022/10/16 04:34:39;;;;;;;6.82;1.77;;;14.20;92.60;;;;;;6226463;23;20028;-90
2022/10/16 04:37:26;;;;;;;3.03;1.30;;;14.10;99.90;;;;;;6247737;23;20035;-91
2022/10/16 04:40:15;;;;;;;2.70;1.50;;;14.20;99.90;;;;;;6247380;23;20028;-89
2022/10/16 04:43:04;;;;;;;2.88;1.50;;;14.10;99.90;;;;;;6223989;23;20066;-91
2022/10/16 04:45:51;;;;;;;2.72;1.33;;;14.20;99.90;;;;;;6226016;23;20035;-90
2022/10/16 04:48:39;;;;;;;6.00;2.00;;;14.20;99.90;;;;;;6247051;23;20020;-90
2022/10/16 04:51:27;;;;;;;4.28;1.30;;;14.20;99.90;;;;;;6227413;23;20279;-91
2022/10/16 04:54:14;;;;;;;2.20;1.20;;;14.20;99.90;;;;;;6223236;23;20102;-89
2022/10/16 04:57:02;;;;;;;4.00;1.70;;;14.20;99.90;;;;;;6246457;23;20034;-90
2022/10/16 04:59:49;;;;;;;3.53;1.70;;;14.30;99.90;;;;;;6227470;23;20399;-90
2022/10/16 05:02:37;;;;;;;3.22;1.55;;;14.40;95.80;;;;;;6227616;23;20079;-92
2022/10/16 05:05:25;;;;;;;2.13;1.80;;;14.40;45.90;;;;;;6247589;23;20389;-92
2022/10/16 05:08:16;;;;;;;2.88;1.60;;;14.50;1.60;;;;;;6249606;23;20020;-92
2022/10/16 05:11:03;;;;;;;5.03;1.73;;;14.50;1.00;;;;;;6251969;23;20031;-90
2022/10/16 05:13:53;;;;;;;2.42;1.40;;;14.60;1.00;;;;;;6234426;23;20329;-91
2022/10/16 05:16:42;;;;;;;1.77;1.60;;;14.50;1.00;;;;;;6255603;23;20024;-90
2022/10/16 05:19:32;;;;;;;4.75;1.48;;;14.50;1.00;;;;;;6260507;23;20024;-92
2022/10/16 05:22:19;;;;;;;5.53;1.83;;;14.30;1.00;;;;;;6258053;23;20028;-89
2022/10/16 05:25:06;;;;;;;5.47;2.05;;;14.20;1.00;;;;;;6234774;23;20020;-90
2022/10/16 05:27:53;;;;;;;3.53;1.80;;;14.00;38.30;;;;;;6227895;23;20030;-90
2022/10/16 05:30:40;;;;;;;1.92;1.65;;;13.90;99.90;;;;;;6227195;23;20034;-90
2022/10/16 05:33:28;;;;;;;7.18;2.80;;;13.80;99.90;;;;;;6226195;23;20034;-90
2022/10/16 05:36:18;;;;;;;5.07;2.03;;;13.80;99.90;;;;;;6230434;23;20107;-93
2022/10/16 05:39:07;;;;;;;10.38;4.00;;;13.90;99.90;;;;;;6249095;23;20035;-90
2022/10/16 05:46:05;;;;;;;3.58;2.30;;;13.90;99.90;;;;;;6249252;23;20040;-90
2022/10/16 05:48:53;;;;;;;3.83;2.00;;;13.70;99.90;;;;;;6231467;23;20376;-90
2022/10/16 05:51:41;;;;;;;3.47;2.10;;;13.60;99.90;;;;;;6261574;23;20024;-89
2022/10/16 05:54:28;;;;;;;5.22;1.80;;;13.50;1.00;;;;;;6257213;23;20058;-87
2022/10/16 05:57:18;;;;;;;6.93;2.28;;;13.50;1.00;;;;;;6258038;23;20028;-88
2022/10/16 06:00:06;;;;;;;6.88;1.98;;;13.60;1.00;;;;;;6234925;23;20111;-87
2022/10/16 06:02:53;;;;;;;4.47;1.80;;;13.70;29.40;;;;;;6255347;23;20379;-86
2022/10/16 06:05:42;;;;;;;3.85;2.45;;;13.80;7.90;;;;;;6235494;23;20079;-90
2022/10/16 06:08:31;;;;;;;3.85;2.30;;;13.90;1.00;;;;;;6229025;23;20063;-87
2022/10/16 06:11:21;;;;;;;4.72;2.25;;;14.00;1.00;;;;;;6251366;23;20024;-87
2022/10/16 06:14:09;;;;;;;3.50;1.92;;;14.20;99.90;;;;;;6230303;23;20034;-86
2022/10/16 06:16:57;;;;;;;5.80;2.00;;;14.40;99.90;;;;;;6254876;23;20024;-90
2022/10/16 06:19:45;;;;;;;5.32;2.38;;;14.50;99.90;;;;;;6214141;23;20024;-89
2022/10/16 06:22:32;;;;;;;4.00;2.10;;;14.60;99.90;;;;;;6233775;23;20028;-89
2022/10/16 06:25:19;;;;;;;4.38;1.88;;;14.70;15.90;;;;;;6258876;23;20024;-89
2022/10/16 06:28:07;;;;;;;5.15;2.03;;;14.70;1.00;;;;;;6237106;23;20088;-88
2022/10/16 06:31:02;;;;;;;3.92;1.95;;;14.80;1.00;;;;;;6239890;23;20080;-89
2022/10/16 06:33:54;;;;;;;4.68;3.05;;;14.80;1.00;;;;;;6238651;23;20111;-89
2022/10/16 06:36:43;;;;;;;3.47;2.33;;;14.90;1.00;;;;;;6259335;23;20327;-89
2022/10/16 06:39:30;;;;;;;1.40;1.30;;;15.00;1.00;;;;;;6256460;23;20482;-88
2022/10/16 06:42:17;;;;;;;6.78;1.65;;;15.10;99.90;;;;;;6233224;23;20024;-87
2022/10/16 06:45:05;;;;;;;5.10;1.48;;;15.20;99.90;;;;;;6255822;23;20103;-85
2022/10/16 06:47:52;;;;;;;2.83;1.40;;;15.40;99.90;;;;;;6256747;23;20020;-84
2022/10/16 06:50:39;;;;;;;5.93;1.40;;;15.40;99.90;;;;;;6258999;23;20024;-89
2022/10/16 06:53:29;;;;;;;3.97;1.40;;;15.50;99.90;;;;;;6257643;22;20055;-85
2022/10/16 06:56:27;;;;;;;3.13;1.50;;;15.50;99.90;;;;;;6260296;23;20030;-92
2022/10/16 06:59:17;;;;;;;2.60;1.30;;;15.50;99.90;;;;;;6239443;23;20072;-91
2022/10/16 07:02:10;;;;;;;6.03;1.50;;;15.50;99.90;;;;;;6240993;23;20028;-91
2022/10/16 07:04:57;;;;;;;2.17;1.40;;;15.60;99.90;;;;;;6260712;23;20044;-90
2022/10/16 07:07:44;;;;;;;2.30;1.50;;;15.60;99.90;;;;;;6228063;23;20031;-91
2022/10/16 07:10:32;;;;;;;2.30;1.40;;;15.70;99.90;;;;;;6227332;23;20038;-90
2022/10/16 07:13:21;;;;;;;5.20;2.60;;;15.70;99.90;;;;;;6225967;23;20028;-90
2022/10/16 07:16:14;;;;;;;2.42;1.77;;;15.80;99.90;;;;;;6248108;23;20099;-88
2022/10/16 07:19:02;;;;;;;5.25;1.85;;;15.80;99.90;;;;;;6248681;23;20051;-91
2022/10/16 07:21:50;;;;;;;4.82;1.30;;;15.80;99.90;;;;;;6227585;23;20102;-89
2022/10/16 07:24:45;;;;;;;11.27;5.18;;;15.80;99.90;;;;;;6249398;22;20024;-92
2022/10/16 07:27:38;;;;;;;17.00;4.82;;;15.70;99.90;;;;;;6225968;23;20056;-89
2022/10/16 07:30:25;;;;;;;9.25;4.78;;;15.60;99.90;;;;;;6226797;23;20020;-88
2022/10/16 07:33:15;;;;;;;7.88;3.42;;;15.60;99.90;;;;;;6226549;23;20052;-90
2022/10/16 07:36:11;;;;;;;6.60;2.05;;;15.50;99.90;;;;;;6247764;23;20038;-88
2022/10/16 07:39:06;;;;;;;7.95;2.47;;;15.50;99.90;;;;;;6225782;23;20086;-91
2022/10/16 07:41:53;;;;;;;4.20;1.60;;;15.50;99.90;;;;;;6226521;23;20333;-91
2022/10/16 07:44:40;;;;;;;7.88;2.00;;;15.50;99.90;;;;;;6225317;23;20036;-91
2022/10/16 07:47:28;;;;;;;7.32;1.88;;;15.50;99.90;;;;;;6248720;23;20392;-91
2022/10/16 07:50:15;;;;;;;7.60;1.67;;;15.60;99.90;;;;;;6252563;22;20024;-91
2022/10/16 07:53:03;;;;;;;8.10;1.92;;;15.70;99.90;;;;;;6248867;23;20104;-90
2022/10/16 07:55:50;;;;;;;2.95;1.45;;;15.70;99.90;;;;;;6255945;23;20370;-86
2022/10/16 07:58:40;;;;;;;4.22;1.60;;;15.70;99.90;;;;;;6235807;23;20023;-88
2022/10/16 08:01:27;;;;;;;3.65;1.40;;;15.70;99.90;;;;;;6248886;23;20024;-90
2022/10/16 08:04:14;;;;;;;3.90;1.50;;;15.70;99.90;;;;;;6227353;23;20020;-90
2022/10/16 08:07:01;;;;;;;3.20;1.45;;;15.70;99.90;;;;;;6223620;23;20031;-89
2022/10/16 08:09:51;;;;;;;7.97;1.52;;;15.80;99.90;;;;;;6245641;23;20024;-88
2022/10/16 08:12:38;;;;;;;2.95;1.50;;;15.90;99.90;;;;;;6228199;23;20035;-90
2022/10/16 08:15:27;;;;;;;3.80;1.30;;;15.90;99.90;;;;;;6224443;23;20430;-88
2022/10/16 08:18:15;;;;;;;2.78;2.10;;;16.10;99.90;;;;;;6226421;23;20024;-88
2022/10/16 08:21:14;;;;;;;4.35;2.00;;;16.30;99.90;;;;;;6249687;22;20107;-89
2022/10/16 08:24:07;;;;;;;3.85;1.40;;;16.60;87.00;;;;;;6229462;23;20031;-89
2022/10/16 08:26:54;;;;;;;4.13;1.55;;;16.80;20.00;;;;;;6228381;23;20343;-89
2022/10/16 08:29:44;;;;;;;1.45;1.33;;;16.70;1.00;;;;;;6251296;22;20040;-87
2022/10/16 08:32:39;;;;;;;1.40;1.10;;;16.80;1.00;;;;;;6250173;23;20035;-87
2022/10/16 08:35:34;;;;;;;2.72;1.27;;;16.90;1.00;;;;;;6248030;23;20020;-87
2022/10/16 08:38:24;;;;;;;2.25;1.45;;;16.90;1.00;;;;;;6246936;23;20387;-91
2022/10/16 08:41:20;;;;;;;2.67;1.15;;;16.90;1.00;;;;;;6248237;23;20024;-90
2022/10/16 08:44:22;;;;;;;2.30;1.45;;;16.90;1.00;;;;;;6245184;23;20337;-90
2022/10/16 08:47:31;;;;;;;2.80;1.20;;;16.90;1.00;;;;;;6246799;23;20080;-90
2022/10/16 08:50:25;;;;;;;5.45;1.50;;;16.80;1.00;;;;;;6245938;23;20111;-88
2022/10/16 08:53:25;;;;;;;2.15;1.42;;;16.80;1.00;;;;;;6246383;23;20055;-90
2022/10/16 08:56:12;;;;;;;3.92;2.10;;;16.90;1.00;;;;;;6226276;23;20028;-90
2022/10/16 08:59:00;;;;;;;5.13;1.60;;;17.00;1.00;;;;;;6226144;23;20104;-90
2022/10/16 09:01:51;;;;;;;3.03;1.40;;;17.10;1.00;;;;;;6225896;23;20020;-90
2022/10/16 09:04:46;;;;;;;3.17;1.40;;;17.20;1.00;;;;;;6226905;23;20034;-89
2022/10/16 09:07:52;;;;;;;5.65;1.35;;;17.30;1.00;;;;;;6248929;23;20427;-89
2022/10/16 09:10:54;;;;;;;4.90;1.17;;;17.40;1.00;;;;;;6248302;23;20020;-90
2022/10/16 09:13:42;;;;;;;;;;;17.50;1.00;;;;;;6250944;22;20028;-91
2022/10/16 09:16:42;;;;;;;1.60;1.08;;;17.60;1.00;;;;;;6249217;23;20215;-87
2022/10/16 09:19:43;;;;;;;3.03;1.45;;;17.60;1.00;;;;;;6227631;23;20090;-91
2022/10/16 09:22:32;;;;;;;2.03;1.30;;;17.70;1.00;;;;;;6227679;23;20060;-89
2022/10/16 09:25:21;;;;;;;7.88;1.58;;;18.00;1.00;;;;;;6226388;23;20378;-89
2022/10/16 09:28:11;;;;;;;3.97;1.42;;;18.50;1.00;;;;;;6228421;23;20327;-88
2022/10/16 09:30:59;;;;;;;2.92;1.10;;;19.90;99.90;;;;;;6248747;23;20028;-90
2022/10/16 09:33:58;;;;;;;8.63;1.65;;;20.60;99.90;;;;;;6248693;23;20024;-90
2022/10/16 09:36:46;;;;;;;13.07;1.20;;;21.70;99.90;;;;;;6248414;23;20538;-89
2022/10/16 09:39:48;;;;;;;3.90;0.98;;;22.20;99.90;;;;;;6250131;23;20048;-90
2022/10/16 09:42:40;;;;;;;2.60;0.82;;;21.80;99.90;;;;;;6227651;23;20027;-90
2022/10/16 09:45:27;;;;;;;3.25;0.98;;;21.90;99.90;;;;;;6251717;23;20027;-90
2022/10/16 09:48:20;;;;;;;4.22;1.10;;;22.30;99.90;;;;;;6249297;23;20031;-89
2022/10/16 09:51:24;;;;;;;1.02;0.68;;;22.90;99.90;;;;;;6229945;23;20020;-90
2022/10/16 09:54:19;;;;;;;3.17;0.80;;;23.20;99.90;;;;;;6249368;23;20020;-87
2022/10/16 09:57:11;;;;;;;1.33;0.75;;;24.50;99.90;;;;;;6230350;23;20028;-93
2022/10/16 09:59:58;;;;;;;3.58;1.10;;;24.40;99.90;;;;;;6252164;23;20454;-90
2022/10/16 10:02:46;;;;;;;1.90;0.90;;;23.60;99.90;;;;;;6230279;23;20028;-91
2022/10/16 10:05:35;;;;;;;2.22;0.88;;;23.70;99.90;;;;;;6228278;23;20099;-91
2022/10/16 10:08:30;;;;;;;7.30;1.02;;;23.10;99.90;;;;;;6248602;23;20133;-88
2022/10/16 10:11:40;;;;;;;7.93;0.82;;;22.60;99.90;;;;;;6228517;23;20031;-89
2022/10/16 10:14:41;;;;;;;2.67;0.90;;;23.40;99.90;;;;;;6230410;23;20028;-87
2022/10/16 10:17:28;;;;;;;1.85;0.70;;;24.00;99.90;;;;;;6229676;23;20051;-90
2022/10/16 10:20:27;;;;;;;2.17;0.80;;;24.80;99.90;;;;;;6249774;23;20036;-87
2022/10/16 10:23:23;;;;;;;2.03;1.02;;;24.10;99.90;;;;;;6249910;23;20056;-87
2022/10/16 10:26:21;;;;;;;3.45;0.80;;;24.30;99.90;;;;;;6230876;23;20047;-92
2022/10/16 10:29:40;;;;;;;3.25;0.90;;;22.90;99.90;;;;;;6252186;23;20335;-91
2022/10/16 10:33:03;;;;;;;3.05;1.02;;;22.50;99.90;;;;;;6231228;23;20024;-89
2022/10/16 10:36:12;;;;;;;1.63;1.00;;;21.70;99.90;;;;;;6228485;23;20142;-91
2022/10/16 10:39:09;;;;;;;2.40;0.82;;;21.20;99.90;;;;;;6228200;23;20032;-89
2022/10/16 10:42:18;;;;;;;3.28;1.13;;;21.50;99.90;;;;;;6229373;23;20038;-89
2022/10/16 10:45:20;;;;;;;2.92;1.05;;;21.50;99.90;;;;;;6226795;23;20020;-91
2022/10/16 10:48:53;;;;;;;3.25;1.20;;;21.70;99.90;;;;;;6229919;23;20024;-90
2022/10/16 10:52:19;;;;;;;1.98;0.90;;;23.30;99.90;;;;;;6231512;23;20024;-91
2022/10/16 10:55:20;;;;;;;1.83;0.90;;;25.00;99.90;;;;;;6239499;23;20055;-92
2022/10/16 10:58:26;;;;;;;1.55;0.75;;;24.90;99.90;;;;;;6229331;23;20110;-93
2022/10/16 11:01:26;;;;;;;3.78;1.17;;;24.60;99.90;;;;;;6228576;23;20423;-89
2022/10/16 11:04:49;;;;;;;4.40;1.13;;;26.00;99.90;;;;;;6231000;23;20020;-89
2022/10/16 11:07:44;;;;;;;0.80;0.73;;;26.10;94.30;;;;;;6225595;23;20024;-90
2022/10/16 11:10:53;;;;;;;1.42;0.75;;;25.90;94.80;;;;;;6249176;23;20086;-88
2022/10/16 11:13:43;;;;;;;4.10;0.80;;;25.50;91.60;;;;;;6249050;23;20096;-88
2022/10/16 11:16:36;;;;;;;1.08;0.70;;;26.10;92.70;;;;;;6246786;23;20051;-87
2022/10/16 11:20:03;;;;;;;3.30;0.88;;;26.10;78.30;;;;;;6247496;23;20071;-89
2022/10/16 11:23:05;;;;;;;3.58;0.80;;;25.80;70.70;;;;;;6229835;22;20105;-88
2022/10/16 11:25:56;;;;;;;0.98;0.75;;;26.20;69.40;;;;;;6248031;23;20051;-88
2022/10/16 11:28:54;;;;;;;0.95;0.77;;;27.80;56.70;;;;;;6228481;23;20427;-89
2022/10/16 11:31:50;;;;;;;2.10;0.80;;;27.80;45.30;;;;;;6250706;23;20043;-88
2022/10/16 11:34:47;;;;;;;3.58;1.05;;;28.00;40.10;;;;;;6227756;23;20422;-86
2022/10/16 11:37:44;;;;;;;1.17;0.70;;;27.70;34.00;;;;;;6248247;23;20031;-89
2022/10/16 11:40:40;;;;;;;3.15;1.00;;;27.90;29.60;;;;;;6247285;23;20023;-88
2022/10/16 11:43:53;;;;;;;2.55;1.00;;;27.00;23.10;;;;;;6229327;23;20031;-90
2022/10/16 11:46:49;;;;;;;2.47;1.08;;;27.10;23.70;;;;;;6225507;23;20051;-89
2022/10/16 11:49:49;;;;;;;2.20;0.88;;;27.90;23.00;;;;;;6229662;23;20020;-88
2022/10/16 11:53:05;;;;;;;3.92;1.30;;;28.60;18.50;;;;;;6250059;22;20020;-89
2022/10/16 11:55:56;;;;;;;3.95;1.38;;;29.50;16.40;;;;;;6251355;23;20113;-89
2022/10/16 11:59:01;;;;;;;5.93;1.05;;;30.30;6.70;;;;;;6247907;23;20275;-89
2022/10/16 12:02:06;;;;;;;2.92;1.00;;;29.80;2.30;;;;;;6249523;23;20406;-87
2022/10/16 12:05:24;;;;;;;2.22;0.88;;;30.10;1.00;;;;;;6249627;23;20107;-91
2022/10/16 12:08:14;;;;;;;1.95;1.00;;;29.80;1.00;;;;;;6227970;23;20106;-89
2022/10/16 12:11:20;;;;;;;1.35;0.95;;;30.30;1.00;;;;;;6248186;23;20020;-89
2022/10/16 12:14:14;;;;;;;2.13;0.90;;;31.10;1.00;;;;;;6229639;23;20034;-89
2022/10/16 12:17:27;;;;;;;4.88;1.15;;;30.40;1.00;;;;;;6227780;23;20055;-87
2022/10/16 12:20:25;;;;;;;2.08;1.17;;;29.90;1.00;;;;;;6227430;23;20031;-89
2022/10/16 12:23:22;;;;;;;3.20;1.02;;;29.30;1.00;;;;;;6228020;23;20423;-91
2022/10/16 12:26:10;;;;;;;2.35;1.27;;;28.40;1.00;;;;;;6249252;23;20099;-88
2022/10/16 12:29:25;;;;;;;2.22;0.90;;;27.90;1.00;;;;;;6208201;23;20020;-87
2022/10/16 12:32:31;;;;;;;2.05;0.93;;;28.60;1.00;;;;;;6227173;23;20020;-89
2022/10/16 12:35:35;;;;;;;3.55;1.10;;;28.60;1.00;;;;;;6231525;23;20035;-87
2022/10/16 12:38:36;;;;;;;2.25;1.08;;;28.50;1.00;;;;;;6251934;23;20055;-88
2022/10/16 12:41:30;;;;;;;3.03;1.00;;;27.70;1.00;;;;;;6250001;23;20107;-87
2022/10/16 12:44:26;;;;;;;2.70;0.90;;;27.00;1.00;;;;;;6228835;23;20499;-88
2022/10/16 12:47:48;;;;;;;2.50;1.00;;;26.20;1.00;;;;;;6231920;23;20435;-87
2022/10/16 12:50:38;;;;;;;3.00;1.20;;;25.80;1.00;;;;;;6247414;23;20031;-89
2022/10/16 12:53:27;;;;;;;4.07;1.02;;;25.60;1.00;;;;;;6250530;23;20439;-87
2022/10/16 12:56:26;;;;;;;5.13;0.90;;;25.60;1.00;;;;;;6229411;23;20091;-88
2022/10/16 12:59:43;;;;;;;3.95;1.23;;;26.00;1.00;;;;;;6231224;23;20117;-90
2022/10/16 13:02:55;;;;;;;1.55;0.82;;;27.30;1.00;;;;;;6208758;23;20035;-87
2022/10/16 13:06:22;;;;;;;4.07;1.13;;;28.50;1.00;;;;;;6251318;22;20024;-88
2022/10/16 13:09:21;;;;;;;2.95;1.08;;;28.10;1.00;;;;;;6138808;23;20449;-87
2022/10/16 13:12:47;;;;;;;7.87;1.10;;;28.00;1.00;;;;;;6156876;23;20057;-88
2022/10/16 13:16:02;;;;;;;4.85;1.20;;;28.70;1.00;;;;;;6158014;23;20039;-88
2022/10/16 13:19:20;;;;;;;2.78;1.10;;;30.00;1.00;;;;;;6158114;23;20022;-90
2022/10/16 13:22:35;;;;;;;2.13;1.10;;;29.50;1.00;;;;;;6226427;23;20028;-89
2022/10/16 13:25:25;;;;;;;2.65;0.90;;;28.90;1.00;;;;;;6227793;23;20110;-89
2022/10/16 13:28:13;;;;;;;1.45;0.88;;;29.20;1.00;;;;;;6252017;23;20072;-89
2022/10/16 13:31:05;;;;;;;1.52;0.90;;;29.80;1.00;;;;;;6249818;23;20032;-88
2022/10/16 13:33:55;;;;;;;1.77;0.82;;;30.30;1.00;;;;;;6256063;23;20028;-89
2022/10/16 13:36:50;;;;;;;2.78;0.90;;;29.50;1.00;;;;;;6261975;23;20043;-90
2022/10/16 13:39:39;;;;;;;3.03;1.40;;;28.50;1.00;;;;;;6252620;23;20442;-89
2022/10/16 13:42:29;;;;;;;1.40;1.10;;;27.70;1.00;;;;;;6249247;23;20095;-88
2022/10/16 13:45:22;;;;;;;2.90;2.25;;;26.60;1.00;;;;;;6227951;23;20118;-91
2022/10/16 13:48:12;;;;;;;4.57;1.25;;;25.90;1.00;;;;;;6229354;23;20093;-91
2022/10/16 13:51:05;;;;;;;3.72;1.00;;;25.50;1.00;;;;;;6250730;23;20119;-87
2022/10/16 13:53:54;;;;;;;4.82;1.25;;;25.40;1.00;;;;;;6228789;23;20082;-90
2022/10/16 13:56:41;;;;;;;3.28;1.30;;;25.40;1.00;;;;;;6229090;23;20024;-90
2022/10/16 13:59:57;;;;;;;1.27;1.17;;;25.40;1.00;;;;;;6226453;23;20020;-88
2022/10/16 14:02:50;;;;;;;3.50;1.20;;;24.90;1.00;;;;;;6249333;23;20300;-90
2022/10/16 14:05:57;;;;;;;4.63;1.48;;;24.70;1.00;;;;;;6248512;23;20024;-89
2022/10/16 14:08:50;;;;;;;2.47;1.20;;;24.70;1.00;;;;;;6249691;23;20422;-91
2022/10/16 14:11:44;;;;;;;;;;;24.50;1.00;;;;;;6228992;23;20039;-89
2022/10/16 14:14:39;;;;;;;1.77;1.20;;;24.60;1.00;;;;;;6246851;23;19951;-89
2022/10/16 14:17:29;;;;;;;2.72;1.20;;;24.60;1.00;;;;;;6249112;23;20343;-89
2022/10/16 14:20:18;;;;;;;1.83;1.20;;;24.50;1.00;;;;;;6227251;23;20024;-90
2022/10/16 14:23:19;;;;;;;2.95;1.20;;;24.40;1.00;;;;;;6248088;23;20016;-87
2022/10/16 14:26:13;;;;;;;1.67;1.10;;;24.10;1.00;;;;;;6226394;23;20035;-87
2022/10/16 14:29:28;;;;;;;5.32;1.35;;;24.10;1.00;;;;;;6226133;23;20249;-88
2022/10/16 14:32:23;;;;;;;1.48;1.10;;;24.10;1.00;;;;;;6248688;23;20028;-89
2022/10/16 14:35:32;;;;;;;2.67;1.00;;;24.20;1.00;;;;;;6247688;23;20107;-90
2022/10/16 14:38:20;;;;;;;2.88;1.15;;;24.40;1.00;;;;;;6249957;22;20031;-88
2022/10/16 14:41:08;;;;;;;2.65;1.10;;;25.00;1.00;;;;;;6226380;23;20024;-89
2022/10/16 14:44:02;;;;;;;2.25;1.27;;;25.30;1.00;;;;;;6246875;23;20028;-88
2022/10/16 14:46:49;;;;;;;2.47;1.00;;;25.40;1.00;;;;;;6250329;23;20106;-88
2022/10/16 14:49:38;;;;;;;1.63;0.98;;;25.50;1.00;;;;;;6249467;23;20039;-89
2022/10/16 14:52:28;;;;;;;2.58;1.50;;;25.30;1.00;;;;;;6228186;23;20020;-88
2022/10/16 14:55:16;;;;;;;3.08;1.42;;;25.00;1.00;;;;;;6225052;23;20028;-90
2022/10/16 14:58:03;;;;;;;2.13;1.30;;;24.80;1.00;;;;;;6247336;23;20024;-91
2022/10/16 15:00:52;;;;;;;7.90;1.10;;;25.20;1.00;;;;;;6226015;23;20024;-90
2022/10/16 15:03:39;;;;;;;4.45;1.42;;;25.20;1.00;;;;;;6251470;23;20030;-93
2022/10/16 15:06:26;;;;;;;3.35;1.13;;;25.60;1.00;;;;;;6251490;23;20038;-92
2022/10/16 15:09:13;;;;;;;6.72;1.40;;;25.50;1.00;;;;;;6229098;23;20112;-90
2022/10/16 15:12:01;;;;;;;2.80;1.17;;;25.10;1.00;;;;;;6248965;23;20392;-92